createdAt,value
2022-08-11T00:02:03.539Z,18.00
2022-08-11T00:04:37.629Z,18.00
2022-08-11T00:07:09.064Z,17.90
2022-08-11T00:09:40.381Z,18.30
2022-08-11T00:12:16.058Z,18.00
2022-08-11T00:14:45.906Z,18.40
2022-08-11T00:17:20.468Z,18.70
2022-08-11T00:20:12.718Z,18.37
2022-08-11T00:22:44.229Z,18.47
2022-08-11T00:25:15.071Z,18.60
2022-08-11T00:27:44.236Z,18.17
2022-08-11T00:30:15.233Z,18.20
2022-08-11T00:32:46.634Z,18.07
2022-08-11T00:35:55.472Z,17.93
2022-08-11T00:38:09.437Z,18.53
2022-08-11T00:40:46.757Z,18.10
2022-08-11T00:43:23.600Z,18.30
2022-08-11T00:46:30.561Z,17.97
2022-08-11T00:49:17.845Z,18.23
2022-08-11T00:52:05.697Z,18.00
2022-08-11T00:55:12.325Z,18.10
2022-08-11T00:58:00.926Z,17.83
2022-08-11T01:00:35.540Z,18.10
2022-08-11T01:03:26.407Z,18.00
2022-08-11T01:06:42.458Z,17.70
2022-08-11T01:09:30.215Z,17.90
2022-08-11T01:12:27.936Z,18.40
2022-08-11T01:15:24.820Z,18.03
2022-08-11T01:18:31.182Z,18.40
2022-08-11T01:21:33.710Z,18.27
2022-08-11T01:24:53.145Z,18.53
2022-08-11T01:27:49.087Z,18.53
2022-08-11T01:30:59.026Z,18.50
2022-08-11T01:34:08.265Z,18.47
2022-08-11T01:37:10.078Z,18.70
2022-08-11T01:40:23.887Z,19.30
2022-08-11T01:43:54.593Z,18.63
2022-08-11T01:46:31.432Z,19.00
2022-08-11T01:49:59.681Z,18.70
2022-08-11T01:52:18.733Z,18.87
2022-08-11T01:54:55.555Z,18.83
2022-08-11T01:57:37.197Z,19.03
2022-08-11T02:00:12.121Z,18.57
2022-08-11T02:02:54.187Z,18.30
2022-08-11T02:05:38.282Z,18.40
2022-08-11T02:08:18.954Z,18.60
2022-08-11T02:11:13.335Z,18.37
2022-08-11T02:13:52.327Z,18.17
2022-08-11T02:16:34.697Z,18.73
2022-08-11T02:19:31.936Z,19.20
2022-08-11T02:22:39.828Z,19.27
2022-08-11T02:25:12.015Z,18.57
2022-08-11T02:27:54.377Z,18.30
2022-08-11T02:30:29.446Z,18.50
2022-08-11T02:33:24.020Z,18.33
2022-08-11T02:36:05.298Z,18.20
2022-08-11T02:38:45.395Z,18.70
2022-08-11T02:41:44.423Z,18.60
2022-08-11T02:44:36.146Z,18.33
2022-08-11T02:47:15.263Z,18.37
2022-08-11T02:50:02.779Z,18.53
2022-08-11T02:52:46.588Z,18.50
2022-08-11T02:55:44.468Z,18.50
2022-08-11T02:58:19.905Z,18.93
2022-08-11T03:01:04.610Z,19.20
2022-08-11T03:03:43.598Z,18.90
2022-08-11T03:06:25.484Z,18.57
2022-08-11T03:09:00.774Z,18.67
2022-08-11T03:12:20.922Z,18.90
2022-08-11T03:15:12.907Z,18.57
2022-08-11T03:17:51.296Z,18.83
2022-08-11T03:20:38.386Z,18.83
2022-08-11T03:23:19.688Z,18.90
2022-08-11T03:25:55.128Z,19.20
2022-08-11T03:28:32.810Z,19.00
2022-08-11T03:31:24.942Z,19.13
2022-08-11T03:34:07.528Z,19.60
2022-08-11T03:37:17.654Z,18.90
2022-08-11T03:40:06.595Z,18.57
2022-08-11T03:42:47.749Z,19.00
2022-08-11T03:45:27.557Z,19.17
2022-08-11T03:48:18.540Z,19.10
2022-08-11T03:51:00.318Z,18.50
2022-08-11T03:53:53.464Z,19.07
2022-08-11T03:57:05.608Z,19.17
2022-08-11T04:00:22.150Z,19.40
2022-08-11T04:03:31.448Z,18.43
2022-08-11T04:06:40.998Z,17.50
2022-08-11T04:09:51.433Z,18.37
2022-08-11T04:12:59.715Z,18.70
2022-08-11T04:16:12.167Z,18.03
2022-08-11T04:19:28.162Z,17.80
2022-08-11T04:22:37.290Z,17.20
2022-08-11T04:25:57.802Z,17.03
2022-08-11T04:28:50.982Z,16.97
2022-08-11T04:31:44.382Z,17.57
2022-08-11T04:35:10.287Z,18.07
2022-08-11T04:38:15.830Z,17.63
2022-08-11T04:41:32.283Z,17.40
2022-08-11T04:44:37.413Z,17.90
2022-08-11T04:47:59.756Z,17.87
2022-08-11T04:51:17.330Z,17.90
2022-08-11T04:54:13.900Z,18.03
2022-08-11T04:57:03.607Z,17.70
2022-08-11T05:00:31.902Z,17.63
2022-08-11T05:03:45.233Z,17.77
2022-08-11T05:06:52.431Z,18.27
2022-08-11T05:09:36.464Z,18.10
2022-08-11T05:12:26.747Z,18.50
2022-08-11T05:15:13.574Z,18.30
2022-08-11T05:18:13.789Z,18.10
2022-08-11T05:21:12.858Z,17.90
2022-08-11T05:24:06.235Z,17.80
2022-08-11T05:27:03.362Z,18.10
2022-08-11T05:30:20.759Z,17.70
2022-08-11T05:33:18.957Z,17.80
2022-08-11T05:36:07.677Z,18.00
2022-08-11T05:39:13.782Z,18.00
2022-08-11T05:42:07.923Z,18.47
2022-08-11T05:45:16.083Z,19.70
2022-08-11T05:48:12.484Z,19.10
2022-08-11T05:51:17.646Z,18.00
2022-08-11T05:54:29.743Z,18.33
2022-08-11T05:57:01.214Z,17.80
2022-08-11T05:59:38.427Z,17.87
2022-08-11T06:02:09.876Z,18.40
2022-08-11T06:04:40.471Z,17.53
2022-08-11T06:07:11.893Z,18.00
2022-08-11T06:09:55.840Z,17.20
2022-08-11T06:12:32.683Z,17.37
2022-08-11T06:15:06.037Z,17.50
2022-08-11T06:17:47.342Z,17.27
2022-08-11T06:20:27.741Z,17.20
2022-08-11T06:23:08.813Z,17.43
2022-08-11T06:25:40.344Z,17.50
2022-08-11T06:28:20.700Z,17.33
2022-08-11T06:31:14.085Z,17.80
2022-08-11T06:34:01.497Z,17.73
2022-08-11T06:36:39.989Z,17.70
2022-08-11T06:39:24.713Z,17.50
2022-08-11T06:42:15.650Z,17.50
2022-08-11T06:45:05.208Z,17.47
2022-08-11T06:47:53.915Z,17.73
2022-08-11T06:50:57.156Z,17.50
2022-08-11T06:54:04.065Z,17.20
2022-08-11T07:00:16.133Z,16.97
2022-08-11T07:03:08.443Z,17.40
2022-08-11T07:05:52.132Z,16.80
2022-08-11T07:09:14.084Z,16.73
2022-08-11T07:12:19.653Z,16.33
2022-08-11T07:15:15.434Z,17.73
2022-08-11T07:18:25.982Z,17.03
2022-08-11T07:22:03.059Z,17.80
2022-08-11T07:24:59.101Z,17.33
2022-08-11T07:28:17.333Z,17.63
2022-08-11T07:34:38.338Z,17.80
2022-08-11T07:37:20.936Z,18.07
2022-08-11T07:39:56.416Z,18.13
2022-08-11T07:42:36.247Z,18.23
2022-08-11T07:45:26.596Z,18.10
2022-08-11T07:48:14.357Z,19.27
2022-08-11T07:51:03.807Z,18.37
2022-08-11T07:53:57.806Z,18.33
2022-08-11T07:57:08.868Z,17.17
2022-08-11T08:00:30.000Z,17.80
2022-08-11T08:03:54.167Z,17.53
2022-08-11T08:06:42.911Z,17.80
2022-08-11T08:09:40.529Z,17.80
2022-08-11T08:12:31.993Z,17.73
2022-08-11T08:15:33.563Z,17.47
2022-08-11T08:18:09.071Z,17.40
2022-08-11T08:21:12.486Z,17.90
2022-08-11T08:23:53.882Z,17.60
2022-08-11T08:26:43.171Z,18.63
2022-08-11T08:29:49.881Z,17.70
2022-08-11T08:32:35.482Z,18.70
2022-08-11T08:35:08.003Z,17.50
2022-08-11T08:37:45.522Z,18.03
2022-08-11T08:40:33.205Z,19.47
2022-08-11T08:43:17.644Z,18.83
2022-08-11T08:45:47.505Z,18.30
2022-08-11T08:48:32.530Z,19.10
2022-08-11T08:54:54.376Z,18.50
2022-08-11T08:57:36.834Z,18.50
2022-08-11T09:00:13.000Z,18.30
2022-08-11T09:02:50.881Z,18.47
2022-08-11T09:05:38.390Z,18.20
2022-08-11T09:08:15.818Z,18.13
2022-08-11T09:10:45.023Z,18.40
2022-08-11T09:13:42.469Z,18.10
2022-08-11T09:16:18.941Z,19.13
2022-08-11T09:18:50.022Z,18.90
2022-08-11T09:21:49.172Z,19.07
2022-08-11T09:24:38.887Z,19.03
2022-08-11T09:27:30.346Z,19.90
2022-08-11T09:30:00.467Z,18.77
2022-08-11T09:32:40.677Z,19.17
2022-08-11T09:35:26.430Z,18.60
2022-08-11T09:38:24.122Z,19.03
2022-08-11T09:41:15.713Z,18.70
2022-08-11T09:44:08.275Z,18.77
2022-08-11T09:46:54.377Z,18.83
2022-08-11T09:49:27.285Z,18.60
2022-08-11T09:52:09.718Z,18.50
2022-08-11T09:54:38.879Z,18.37
2022-08-11T09:57:28.378Z,18.43
2022-08-11T10:00:15.463Z,18.50
2022-08-11T10:06:57.975Z,17.33
2022-08-11T10:10:05.913Z,16.83
2022-08-11T10:12:49.221Z,17.67
2022-08-11T10:15:36.987Z,16.70
2022-08-11T10:18:27.164Z,17.10
2022-08-11T10:21:07.338Z,18.67
2022-08-11T10:24:06.113Z,17.43
2022-08-11T10:27:00.081Z,17.77
2022-08-11T10:30:09.875Z,17.57
2022-08-11T10:33:04.469Z,17.43
2022-08-11T10:35:55.455Z,17.40
2022-08-11T10:38:26.794Z,16.50
2022-08-11T10:41:25.828Z,18.00
2022-08-11T10:44:02.786Z,16.80
2022-08-11T10:46:51.749Z,16.70
2022-08-11T10:49:39.153Z,17.00
2022-08-11T10:52:25.474Z,16.40
2022-08-11T10:55:12.515Z,16.20
2022-08-11T10:58:05.093Z,16.67
2022-08-11T11:00:37.109Z,17.47
2022-08-11T11:03:23.002Z,16.70
2022-08-11T11:06:29.373Z,17.00
2022-08-11T11:09:10.111Z,17.10
2022-08-11T11:12:11.670Z,17.27
2022-08-11T11:15:09.155Z,17.83
2022-08-11T11:18:01.884Z,18.33
2022-08-11T11:20:47.504Z,19.20
2022-08-11T11:23:21.995Z,18.00
2022-08-11T11:26:35.077Z,18.70
2022-08-11T11:29:44.933Z,18.40
2022-08-11T11:33:24.040Z,17.97
2022-08-11T11:41:09.529Z,18.47
2022-08-11T11:43:46.981Z,18.17
2022-08-11T11:46:46.848Z,18.50
2022-08-11T11:49:32.690Z,18.00
2022-08-11T11:52:09.425Z,18.60
2022-08-11T11:54:58.969Z,18.80
2022-08-11T11:58:03.537Z,18.70
2022-08-11T12:00:57.174Z,18.43
2022-08-11T12:03:56.242Z,17.97
2022-08-11T12:06:34.374Z,17.37
2022-08-11T12:09:07.375Z,17.37
2022-08-11T12:12:05.707Z,17.57
2022-08-11T12:14:39.664Z,18.00
2022-08-11T12:17:18.666Z,18.37
2022-08-11T12:20:04.263Z,17.67
2022-08-11T12:23:01.749Z,17.30
2022-08-11T12:26:04.440Z,17.40
2022-08-11T12:28:53.836Z,17.73
2022-08-11T12:32:00.666Z,17.57
2022-08-11T12:34:49.636Z,17.20
2022-08-11T12:37:23.947Z,17.33
2022-08-11T12:41:12.172Z,17.00
2022-08-11T12:43:57.546Z,17.70
2022-08-11T12:46:35.352Z,17.30
2022-08-11T12:49:29.355Z,17.43
2022-08-11T12:52:15.245Z,17.17
2022-08-11T12:54:58.039Z,17.10
2022-08-11T12:57:50.670Z,17.20
2022-08-11T13:00:48.593Z,17.10
2022-08-11T13:03:56.468Z,16.70
2022-08-11T13:07:04.527Z,17.10
2022-08-11T13:10:37.282Z,17.40
2022-08-11T13:13:55.085Z,17.90
2022-08-11T13:16:21.813Z,17.67
2022-08-11T13:19:03.357Z,17.80
2022-08-11T13:21:38.128Z,17.73
2022-08-11T13:24:07.649Z,18.07
2022-08-11T13:26:50.133Z,17.87
2022-08-11T13:29:32.373Z,17.40
2022-08-11T13:32:05.973Z,18.03
2022-08-11T13:34:44.975Z,17.90
2022-08-11T13:37:16.535Z,18.10
2022-08-11T13:39:49.830Z,17.30
2022-08-11T13:42:26.033Z,17.40
2022-08-11T13:45:09.938Z,17.20
2022-08-11T13:48:31.298Z,17.30
2022-08-11T13:51:34.532Z,17.67
2022-08-11T13:54:07.662Z,17.37
2022-08-11T13:56:51.707Z,17.07
2022-08-11T13:59:29.781Z,16.90
2022-08-11T14:02:22.038Z,17.13
2022-08-11T14:05:05.506Z,16.70
2022-08-11T14:07:50.147Z,16.30
2022-08-11T14:10:26.147Z,16.53
2022-08-11T14:13:17.414Z,16.40
2022-08-11T14:15:48.711Z,16.90
2022-08-11T14:18:41.656Z,17.10
2022-08-11T14:21:37.792Z,16.70
2022-08-11T14:24:07.312Z,16.67
2022-08-11T14:26:39.353Z,16.70
2022-08-11T14:29:27.726Z,16.57
2022-08-11T14:32:27.717Z,17.17
2022-08-11T14:35:20.651Z,16.10
2022-08-11T14:38:01.678Z,16.50
2022-08-11T14:41:17.659Z,16.10
2022-08-11T14:44:13.957Z,18.13
2022-08-11T14:47:23.132Z,16.07
2022-08-11T14:49:58.024Z,16.10
2022-08-11T14:53:05.165Z,16.43
2022-08-11T14:55:56.286Z,16.60
2022-08-11T14:58:30.846Z,16.40
2022-08-11T15:01:01.670Z,16.70
2022-08-11T15:03:34.568Z,16.97
2022-08-11T15:06:38.895Z,17.43
2022-08-11T15:09:10.694Z,17.23
2022-08-11T15:12:00.614Z,17.77
2022-08-11T15:14:49.453Z,17.47
2022-08-11T15:17:36.964Z,17.07
2022-08-11T15:20:43.241Z,16.70
2022-08-11T15:23:38.778Z,17.20
2022-08-11T15:26:44.449Z,16.63
2022-08-11T15:29:34.607Z,16.90
2022-08-11T15:32:22.225Z,16.70
2022-08-11T15:35:14.828Z,16.83
2022-08-11T15:38:17.424Z,17.00
2022-08-11T15:41:11.303Z,17.07
2022-08-11T15:44:08.338Z,16.43
2022-08-11T15:46:48.627Z,16.23
2022-08-11T15:50:11.245Z,16.43
2022-08-11T15:52:40.600Z,16.90
2022-08-11T15:55:17.909Z,16.77
2022-08-11T15:58:09.411Z,16.63
2022-08-11T16:01:08.845Z,17.17
2022-08-11T16:04:35.328Z,15.77
2022-08-11T16:07:38.424Z,16.00
2022-08-11T16:10:19.594Z,16.07
2022-08-11T16:13:10.476Z,15.67
2022-08-11T16:16:16.249Z,15.83
2022-08-11T16:18:51.909Z,16.20
2022-08-11T16:21:36.447Z,16.10
2022-08-11T16:27:06.060Z,15.93
2022-08-11T16:27:17.229Z,15.90
2022-08-11T16:30:07.482Z,16.27
2022-08-11T16:32:47.085Z,16.43
2022-08-11T16:35:36.646Z,16.60
2022-08-11T16:38:24.436Z,16.67
2022-08-11T16:40:56.467Z,16.93
2022-08-11T16:43:47.569Z,16.73
2022-08-11T16:46:40.617Z,15.97
2022-08-11T16:49:18.187Z,15.73
2022-08-11T16:51:49.634Z,16.40
2022-08-11T16:54:20.932Z,15.70
2022-08-11T16:56:53.350Z,15.70
2022-08-11T16:59:25.863Z,15.80
2022-08-11T17:01:57.913Z,16.37
2022-08-11T17:04:48.778Z,16.47
2022-08-11T17:07:41.704Z,16.17
2022-08-11T17:10:50.478Z,15.70
2022-08-11T17:13:29.820Z,16.00
2022-08-11T17:16:08.438Z,15.70
2022-08-11T17:18:47.582Z,15.50
2022-08-11T17:21:22.290Z,15.17
2022-08-11T17:23:55.394Z,15.30
2022-08-11T17:26:51.802Z,17.07
2022-08-11T17:29:25.902Z,16.20
2022-08-11T17:32:13.158Z,16.07
2022-08-11T17:35:02.112Z,15.90
2022-08-11T17:37:34.154Z,16.47
2022-08-11T17:40:06.192Z,16.13
2022-08-11T17:42:55.036Z,16.50
2022-08-11T17:45:42.673Z,16.30
2022-08-11T17:48:28.165Z,16.50
2022-08-11T17:51:01.396Z,17.37
2022-08-11T17:54:09.979Z,16.40
2022-08-11T17:57:01.761Z,16.33
2022-08-11T17:59:49.319Z,16.30
2022-08-11T18:02:40.881Z,15.97
2022-08-11T18:05:13.470Z,16.40
2022-08-11T18:08:02.490Z,16.03
2022-08-11T18:10:52.168Z,16.60
2022-08-11T18:13:42.446Z,16.60
2022-08-11T18:16:29.006Z,16.07
2022-08-11T18:19:17.751Z,16.30
2022-08-11T18:22:16.572Z,16.10
2022-08-11T18:25:16.292Z,16.27
2022-08-11T18:28:21.858Z,16.43
2022-08-11T18:31:13.072Z,15.80
2022-08-11T18:34:07.653Z,15.60
2022-08-11T18:36:58.307Z,16.53
2022-08-11T18:39:56.071Z,15.60
2022-08-11T18:42:43.905Z,16.40
2022-08-11T18:45:43.098Z,15.80
2022-08-11T18:48:35.780Z,16.57
2022-08-11T18:51:31.718Z,15.83
2022-08-11T18:54:28.423Z,15.90
2022-08-11T18:57:22.805Z,16.17
2022-08-11T19:00:12.348Z,15.07
2022-08-11T19:03:03.708Z,15.50
2022-08-11T19:06:32.564Z,16.00
2022-08-11T19:09:06.718Z,16.40
2022-08-11T19:11:55.790Z,17.00
2022-08-11T19:14:48.832Z,16.87
2022-08-11T19:17:46.013Z,16.50
2022-08-11T19:20:38.636Z,17.57
2022-08-11T19:23:27.007Z,16.90
2022-08-11T19:26:16.320Z,16.07
2022-08-11T19:29:08.048Z,16.93
2022-08-11T19:31:55.320Z,16.30
2022-08-11T19:34:43.704Z,16.50
2022-08-11T19:37:32.045Z,16.50
2022-08-11T19:40:22.926Z,16.87
2022-08-11T19:43:18.623Z,17.63
2022-08-11T19:46:17.190Z,17.10
2022-08-11T19:49:05.289Z,17.23
2022-08-11T19:51:54.633Z,16.70
2022-08-11T19:54:51.516Z,16.43
2022-08-11T19:57:40.223Z,16.90
2022-08-11T20:00:29.959Z,19.03
2022-08-11T20:03:17.549Z,18.00
2022-08-11T20:06:05.912Z,17.70
2022-08-11T20:08:57.806Z,17.07
2022-08-11T20:11:50.536Z,17.73
2022-08-11T20:14:58.218Z,17.50
2022-08-11T20:18:07.342Z,17.40
2022-08-11T20:24:05.558Z,17.63
2022-08-11T20:27:01.845Z,17.20
2022-08-11T20:29:51.067Z,17.50
2022-08-11T20:32:41.815Z,17.00
2022-08-11T20:35:30.747Z,17.50
2022-08-11T20:38:19.228Z,17.80
2022-08-11T20:41:16.056Z,17.70
2022-08-11T20:44:30.751Z,17.47
2022-08-11T20:47:24.153Z,16.87
2022-08-11T20:50:25.367Z,16.90
2022-08-11T20:53:35.917Z,17.50
2022-08-11T20:56:28.945Z,16.97
2022-08-11T20:59:21.913Z,16.83
2022-08-11T21:02:12.310Z,16.70
2022-08-11T21:05:13.131Z,16.77
2022-08-11T21:08:15.192Z,17.37
2022-08-11T21:11:27.440Z,18.13
2022-08-11T21:14:29.565Z,16.97
2022-08-11T21:17:28.770Z,16.13
2022-08-11T21:20:21.204Z,16.43
2022-08-11T21:23:18.501Z,16.70
2022-08-11T21:26:21.424Z,16.43
2022-08-11T21:29:19.626Z,17.07
2022-08-11T21:32:11.264Z,16.60
2022-08-11T21:35:01.641Z,17.50
2022-08-11T21:37:50.399Z,16.77
2022-08-11T21:40:49.530Z,17.50
2022-08-11T21:44:08.415Z,16.80
2022-08-11T21:46:57.191Z,16.53
2022-08-11T21:49:46.759Z,17.30
2022-08-11T21:52:36.793Z,16.97
2022-08-11T21:55:23.342Z,17.00
2022-08-11T21:58:15.449Z,17.47
2022-08-11T22:01:09.610Z,17.00
2022-08-11T22:04:26.964Z,17.60
2022-08-11T22:07:23.254Z,17.03
2022-08-11T22:10:41.134Z,18.87
2022-08-11T22:13:33.825Z,17.57
2022-08-11T22:16:59.726Z,16.80
2022-08-11T22:19:46.678Z,17.10
2022-08-11T22:22:51.121Z,18.43
2022-08-11T22:25:54.405Z,17.60
2022-08-11T22:28:59.136Z,17.90
2022-08-11T22:31:50.170Z,19.37
2022-08-11T22:34:52.555Z,18.00
2022-08-11T22:37:50.493Z,17.90
2022-08-11T22:40:41.997Z,18.50
2022-08-11T22:43:30.089Z,17.87
2022-08-11T22:46:18.209Z,17.90
2022-08-11T22:49:42.375Z,17.50
2022-08-11T22:52:43.077Z,17.47
2022-08-11T22:55:29.492Z,17.50
2022-08-11T22:58:22.535Z,18.30
2022-08-11T23:01:20.695Z,18.67
2022-08-11T23:04:15.113Z,17.67
2022-08-11T23:07:03.108Z,17.90
2022-08-11T23:10:00.118Z,17.67
2022-08-11T23:12:49.302Z,17.53
2022-08-11T23:15:43.201Z,17.83
2022-08-11T23:22:23.032Z,17.90
2022-08-11T23:25:37.439Z,18.20
2022-08-11T23:28:28.559Z,19.30
2022-08-11T23:31:16.918Z,18.57
2022-08-11T23:35:02.735Z,19.23
2022-08-11T23:37:36.001Z,18.53
2022-08-11T23:40:31.434Z,18.70
2022-08-11T23:43:37.084Z,19.10
2022-08-11T23:46:50.412Z,18.57
2022-08-11T23:49:47.159Z,18.53
2022-08-11T23:52:47.522Z,19.00
2022-08-11T23:55:54.253Z,18.17
2022-08-11T23:58:47.525Z,18.10
